NASDAQ100

USA: Nasdaq 100

Name ISIN Kurs Stand Diff % Diff +/-
Adobe Inc. US00724F1012 251,80 09:10 Uhr +0,38% +0,9500
Advanced Micro Devices Inc. US0079031078 406,75 09:10 Uhr +1,17% +4,700
Airbnb Inc. US0090661010 158,14 09:10 Uhr -0,45% -0,7200
Alnylam Pharmaceuticals Inc US02043Q1076 207,00 09:10 Uhr +0,49% +1,0000
Alphabet Inc. US02079K3059 292,40 09:10 Uhr +0,19% +0,5500
Alphabet Inc. US02079K1079 289,05 09:10 Uhr +0,14% +0,4000
Amazon.com Inc. US0231351067 224,00 09:10 Uhr -0,55% -1,250
American Electric Power Co.Inc US0255371017 103,54 09:10 Uhr -1,58% -1,660
Amgen Inc. US0311621009 370,15 09:10 Uhr -0,09% -0,3500
Analog Devices Inc. US0326541051 309,50 09:10 Uhr -0,82% -2,550
Apple Inc. US0378331005 272,70 09:10 Uhr +0,53% +1,450
Applied Materials Inc. US0382221051 396,40 09:10 Uhr +1,01% +3,950
ARM Holdings PLC US0420682058 207,50 09:10 Uhr +0,73% +1,500
Autodesk Inc. US0527691069 220,75 09:10 Uhr -0,90% -2,000
Automatic Data Processing Inc. US0530151036 245,05 09:10 Uhr -0,51% -1,250
Baker Hughes Co. US05722G1004 54,38 09:10 Uhr +0,63% +0,3400
Booking Holdings Inc. US09857L1089 171,25 09:10 Uhr -1,13% -1,950
Broadcom Inc. US11135F1012 320,10 09:10 Uhr +0,99% +3,150
Cadence Design Systems Inc. US1273871087 291,15 09:10 Uhr -0,14% -0,4000
Cisco Systems Inc. US17275R1023 95,41 09:10 Uhr +0,76% +0,7200
Coca-Cola Europacific Pa. PLC GB00BDCPN049 92,50 09:10 Uhr -0,11% -0,1000
Comcast Corp. US20030N1019 22,92 09:10 Uhr -0,39% -0,0900
Copart Inc. US2172041061 28,31 09:10 Uhr -1,17% -0,3350
Costco Wholesale Corp. US22160K1051 812,00 09:10 Uhr -0,26% -2,100
Crowdstrike Holdings Inc US22788C1053 198,26 09:10 Uhr +1,40% +2,740
CSX Corp. US1264081035 43,53 09:10 Uhr +0,17% +0,0750
Datadog Inc. US23804L1035 204,00 09:10 Uhr +1,24% +2,500
DexCom Inc. US2521311074 78,00 09:10 Uhr +0,52% +0,4000
Diamondback Energy Inc. US25278X1090 173,34 09:10 Uhr +1,46% +2,500
Exelon Corp. US30161N1019 37,38 09:10 Uhr -0,08% -0,0300
Fastenal Co. US3119001044 42,38 09:10 Uhr -0,48% -0,2050
Ferrovial N.V. NL0015001FS8 50,04 09:10 Uhr -0,52% -0,2600
Fortinet Inc. US34959E1091 147,32 09:10 Uhr +1,54% +2,240
GE Healthcare Technologies Inc US36266G1076 61,19 09:10 Uhr -0,20% -0,1200
Gilead Sciences Inc. US3755581036 125,68 09:10 Uhr -0,10% -0,1200
Honeywell International Inc. US4385162056 183,40 09:10 Uhr +0,23% +0,4200
IDEXX Laboratories Inc. US45168D1046 478,00 09:10 Uhr -0,64% -3,100
Intel Corp. US4581401001 77,54 09:10 Uhr +0,34% +0,2600
Intuit Inc. US4612021034 308,50 09:10 Uhr -0,08% -0,2500
Intuitive Surgical Inc. US46120E6023 325,05 09:10 Uhr +0,98% +3,150
Keurig Dr Pepper Inc. US49271V1008 27,33 09:10 Uhr -0,15% -0,0400
KLA Corp. US4824801009 151,64 09:10 Uhr +1,03% +1,540
Kraft Heinz Co., The US5007541064 22,10 09:10 Uhr -1,16% -0,2600
Lam Research Corp. US5128073062 260,40 09:10 Uhr +0,54% +1,400
Linde plc IE000S9YS762 418,60 08:04 Uhr -0,95% -4,000
Marriott International Inc. US5719032022 293,80 09:10 Uhr -0,52% -1,550
Marvell Technology Inc. US5738741041 181,72 09:10 Uhr -0,26% -0,4800
Mercadolibre Inc. US58733R1023 1.670,20 09:10 Uhr -0,37% -6,200
Meta Platforms Inc. US30303M1027 492,95 09:10 Uhr 0% 0
Microchip Technology Inc. US5950171042 63,11 09:10 Uhr +0,53% +0,3300
Micron Technology Inc. US5951121038 809,00 13:09 Uhr -0,23% -1,900
Microsoft Corp. US5949181045 435,80 09:10 Uhr -1,04% -4,600
Mondelez International Inc. US6092071058 53,36 09:10 Uhr -0,21% -0,1100
Monster Beverage Corp. (NEW) US61174X1090 39,71 09:10 Uhr +0,06% +0,0250
Netflix Inc. US64110L1061 69,78 09:10 Uhr -0,51% -0,3600
NVIDIA Corp. US67066G1040 189,90 09:10 Uhr +0,17% +0,3200
NXP Semiconductors NV NL0009538784 190,90 09:10 Uhr -1,07% -2,060
O’Reilly Automotive Inc.[New] US67103H1077 75,99 09:10 Uhr -0,86% -0,6600
Old Dominion Freight Line Inc. US6795801009 171,38 09:10 Uhr -0,33% -0,5600
Paccar Inc. US6937181088 106,48 09:10 Uhr -0,21% -0,2200
Palo Alto Networks Inc. US6974351057 329,45 09:10 Uhr +1,57% +5,100
Paychex Inc. US7043261079 109,52 09:10 Uhr +0,59% +0,6400
PayPal Holdings Inc. US70450Y1038 45,36 09:10 Uhr -1,61% -0,7400
PepsiCo Inc. US7134481081 120,82 09:10 Uhr +0,27% +0,3200
QUALCOMM Inc. US7475251036 146,30 09:10 Uhr +0,97% +1,400
Regeneron Pharmaceuticals Inc. US75886F1075 685,50 09:10 Uhr +0,13% +0,9000
Roper Technologies Inc. US7766961061 365,50 09:10 Uhr -0,08% -0,3000
Ross Stores Inc. US7782961038 196,26 09:10 Uhr +0,58% +1,140
SanDisk Corp. US80004C2008 1.330,00 09:10 Uhr +0,76% +10,00
Seagate Technolog.Holdings PLC IE00BKVD2N49 714,00 09:10 Uhr +1,13% +8,000
Shopify Inc. CA82509L1076 126,52 09:10 Uhr -0,58% -0,7400
Space Exploration Techs. Corp. US84615Q1031 124,12 09:10 Uhr +0,63% +0,7800
Starbucks Corp. US8552441094 91,51 09:10 Uhr -0,48% -0,4400
Synopsys Inc. US8716071076 378,00 09:10 Uhr -1,31% -5,000
T-Mobile US Inc. US8725901040 155,84 09:10 Uhr -0,29% -0,4600
Tesla Inc. US88160R1014 316,60 09:10 Uhr +1,07% +3,350
Texas Instruments Inc. US8825081040 224,35 09:10 Uhr +0,07% +0,1500
Thomson Reuters Corp. CA8849038812 92,15 09:10 Uhr +1,60% +1,450
Vertex Pharmaceuticals Inc. US92532F1003 467,70 09:10 Uhr +1,10% +5,100
Walmart Inc. US9311421039 90,33 09:10 Uhr +0,60% +0,5400
WARNER BROS. DISCOVERY INC. US9344231041 24,51 09:10 Uhr -0,57% -0,1400
Western Digital Corp. US9581021055 388,05 09:10 Uhr -0,01% -0,0500
Workday Inc. US98138H1014 169,54 09:10 Uhr -0,53% -0,9000

Die Liste zeigt die im Index enthaltenen Werte, sofern diese an der Börse Hannover gehandelt werden. Alle Angaben ohne Gewähr.

Weitere Auslandsindizes

AEXNiederlande
ATXÖsterreich
BEL 20Belgien
CAC 40Frankreich
Dow JonesUSA
EuroStoxx 50Eurozone
FTSE 100Großbritannien
MIBItalien
IBEX 35Spanien
Stoxx Europe 50Europa